sensor_id;sensor_type;location;lat;lon;timestamp;P1;durP1;ratioP1;P2;durP2;ratioP2
21675;SDS011;10999;51.332;9.458;2023-04-12T00:00:56;10.77;;;4.22;;
21675;SDS011;10999;51.332;9.458;2023-04-12T00:03:23;11.23;;;4.28;;
21675;SDS011;10999;51.332;9.458;2023-04-12T00:05:51;10.73;;;3.70;;
21675;SDS011;10999;51.332;9.458;2023-04-12T00:08:20;13.65;;;5.15;;
21675;SDS011;10999;51.332;9.458;2023-04-12T00:10:51;11.90;;;3.80;;
21675;SDS011;10999;51.332;9.458;2023-04-12T00:13:18;14.32;;;4.55;;
21675;SDS011;10999;51.332;9.458;2023-04-12T00:15:45;12.15;;;4.78;;
21675;SDS011;10999;51.332;9.458;2023-04-12T00:18:12;11.30;;;4.35;;
21675;SDS011;10999;51.332;9.458;2023-04-12T00:20:38;10.77;;;4.15;;
21675;SDS011;10999;51.332;9.458;2023-04-12T00:23:05;11.55;;;4.30;;
21675;SDS011;10999;51.332;9.458;2023-04-12T00:25:32;10.18;;;4.20;;
21675;SDS011;10999;51.332;9.458;2023-04-12T00:27:59;11.38;;;3.97;;
21675;SDS011;10999;51.332;9.458;2023-04-12T00:30:25;12.63;;;4.57;;
21675;SDS011;10999;51.332;9.458;2023-04-12T00:32:53;11.35;;;4.72;;
21675;SDS011;10999;51.332;9.458;2023-04-12T00:35:20;10.32;;;3.60;;
21675;SDS011;10999;51.332;9.458;2023-04-12T00:37:47;10.45;;;4.18;;
21675;SDS011;10999;51.332;9.458;2023-04-12T00:40:13;11.13;;;4.13;;
21675;SDS011;10999;51.332;9.458;2023-04-12T00:42:40;9.73;;;4.10;;
21675;SDS011;10999;51.332;9.458;2023-04-12T00:45:07;8.63;;;3.80;;
21675;SDS011;10999;51.332;9.458;2023-04-12T00:47:34;9.20;;;3.65;;
21675;SDS011;10999;51.332;9.458;2023-04-12T00:50:03;8.85;;;3.78;;
21675;SDS011;10999;51.332;9.458;2023-04-12T00:52:31;9.30;;;3.60;;
21675;SDS011;10999;51.332;9.458;2023-04-12T00:55:05;10.25;;;3.95;;
21675;SDS011;10999;51.332;9.458;2023-04-12T00:57:33;7.30;;;3.13;;
21675;SDS011;10999;51.332;9.458;2023-04-12T01:00:05;9.55;;;3.70;;
21675;SDS011;10999;51.332;9.458;2023-04-12T01:02:39;8.65;;;3.42;;
21675;SDS011;10999;51.332;9.458;2023-04-12T01:05:08;9.88;;;3.67;;
21675;SDS011;10999;51.332;9.458;2023-04-12T01:07:44;7.82;;;3.60;;
21675;SDS011;10999;51.332;9.458;2023-04-12T01:10:24;8.85;;;3.75;;
21675;SDS011;10999;51.332;9.458;2023-04-12T01:18:40;7.93;;;2.80;;
21675;SDS011;10999;51.332;9.458;2023-04-12T01:21:15;9.30;;;3.30;;
21675;SDS011;10999;51.332;9.458;2023-04-12T01:26:45;7.32;;;3.47;;
21675;SDS011;10999;51.332;9.458;2023-04-12T01:29:14;6.95;;;2.70;;
21675;SDS011;10999;51.332;9.458;2023-04-12T01:31:48;10.45;;;3.40;;
21675;SDS011;10999;51.332;9.458;2023-04-12T01:34:18;12.23;;;3.47;;
21675;SDS011;10999;51.332;9.458;2023-04-12T01:36:47;8.60;;;2.78;;
21675;SDS011;10999;51.332;9.458;2023-04-12T01:39:14;9.80;;;3.42;;
21675;SDS011;10999;51.332;9.458;2023-04-12T01:41:41;9.70;;;3.60;;
21675;SDS011;10999;51.332;9.458;2023-04-12T01:44:14;8.85;;;3.45;;
21675;SDS011;10999;51.332;9.458;2023-04-12T01:46:44;8.98;;;2.55;;
21675;SDS011;10999;51.332;9.458;2023-04-12T01:49:13;7.55;;;3.13;;
21675;SDS011;10999;51.332;9.458;2023-04-12T01:54:30;8.13;;;3.28;;
21675;SDS011;10999;51.332;9.458;2023-04-12T01:56:59;8.68;;;3.33;;
21675;SDS011;10999;51.332;9.458;2023-04-12T01:59:34;8.77;;;3.35;;
21675;SDS011;10999;51.332;9.458;2023-04-12T02:02:06;6.53;;;2.97;;
21675;SDS011;10999;51.332;9.458;2023-04-12T02:04:34;5.60;;;2.40;;
21675;SDS011;10999;51.332;9.458;2023-04-12T02:07:02;6.88;;;2.45;;
21675;SDS011;10999;51.332;9.458;2023-04-12T02:09:29;10.48;;;2.78;;
21675;SDS011;10999;51.332;9.458;2023-04-12T02:12:01;9.93;;;2.90;;
21675;SDS011;10999;51.332;9.458;2023-04-12T02:14:27;7.53;;;2.53;;
21675;SDS011;10999;51.332;9.458;2023-04-12T02:16:56;5.43;;;2.20;;
21675;SDS011;10999;51.332;9.458;2023-04-12T02:19:23;8.63;;;2.50;;
21675;SDS011;10999;51.332;9.458;2023-04-12T02:21:50;6.72;;;2.45;;
21675;SDS011;10999;51.332;9.458;2023-04-12T02:24:17;4.80;;;1.83;;
21675;SDS011;10999;51.332;9.458;2023-04-12T02:26:44;7.03;;;2.08;;
21675;SDS011;10999;51.332;9.458;2023-04-12T02:29:11;5.90;;;1.77;;
21675;SDS011;10999;51.332;9.458;2023-04-12T02:31:37;6.10;;;2.20;;
21675;SDS011;10999;51.332;9.458;2023-04-12T02:34:04;4.72;;;1.48;;
21675;SDS011;10999;51.332;9.458;2023-04-12T02:36:31;4.72;;;1.50;;
21675;SDS011;10999;51.332;9.458;2023-04-12T02:38:58;4.88;;;1.50;;
21675;SDS011;10999;51.332;9.458;2023-04-12T02:41:24;4.28;;;1.23;;
21675;SDS011;10999;51.332;9.458;2023-04-12T02:43:51;4.20;;;1.40;;
21675;SDS011;10999;51.332;9.458;2023-04-12T02:46:19;5.32;;;1.30;;
21675;SDS011;10999;51.332;9.458;2023-04-12T02:48:48;5.68;;;1.42;;
21675;SDS011;10999;51.332;9.458;2023-04-12T02:51:16;5.28;;;1.38;;
21675;SDS011;10999;51.332;9.458;2023-04-12T02:53:42;4.63;;;1.35;;
21675;SDS011;10999;51.332;9.458;2023-04-12T02:56:09;4.65;;;1.33;;
21675;SDS011;10999;51.332;9.458;2023-04-12T02:58:37;6.32;;;1.48;;
21675;SDS011;10999;51.332;9.458;2023-04-12T03:01:04;2.75;;;0.90;;
21675;SDS011;10999;51.332;9.458;2023-04-12T03:03:33;5.80;;;1.25;;
21675;SDS011;10999;51.332;9.458;2023-04-12T03:06:01;3.53;;;1.30;;
21675;SDS011;10999;51.332;9.458;2023-04-12T03:08:28;4.38;;;1.10;;
21675;SDS011;10999;51.332;9.458;2023-04-12T03:10:55;4.40;;;1.35;;
21675;SDS011;10999;51.332;9.458;2023-04-12T03:13:22;3.95;;;1.17;;
21675;SDS011;10999;51.332;9.458;2023-04-12T03:15:54;7.50;;;1.30;;
21675;SDS011;10999;51.332;9.458;2023-04-12T03:18:22;4.07;;;1.27;;
21675;SDS011;10999;51.332;9.458;2023-04-12T03:20:49;5.20;;;1.35;;
21675;SDS011;10999;51.332;9.458;2023-04-12T03:23:17;5.60;;;1.00;;
21675;SDS011;10999;51.332;9.458;2023-04-12T03:25:45;4.95;;;1.10;;
21675;SDS011;10999;51.332;9.458;2023-04-12T03:28:12;4.45;;;1.00;;
21675;SDS011;10999;51.332;9.458;2023-04-12T03:30:38;3.10;;;0.95;;
21675;SDS011;10999;51.332;9.458;2023-04-12T03:33:05;3.75;;;0.90;;
21675;SDS011;10999;51.332;9.458;2023-04-12T03:35:32;6.20;;;1.65;;
21675;SDS011;10999;51.332;9.458;2023-04-12T03:37:59;3.97;;;1.13;;
21675;SDS011;10999;51.332;9.458;2023-04-12T03:40:25;6.57;;;1.30;;
21675;SDS011;10999;51.332;9.458;2023-04-12T03:42:52;5.75;;;1.10;;
21675;SDS011;10999;51.332;9.458;2023-04-12T03:45:19;5.38;;;1.30;;
21675;SDS011;10999;51.332;9.458;2023-04-12T03:47:45;6.80;;;1.13;;
21675;SDS011;10999;51.332;9.458;2023-04-12T03:50:12;3.35;;;0.93;;
21675;SDS011;10999;51.332;9.458;2023-04-12T03:52:39;6.35;;;1.45;;
21675;SDS011;10999;51.332;9.458;2023-04-12T03:55:06;6.53;;;1.33;;
21675;SDS011;10999;51.332;9.458;2023-04-12T03:57:33;6.07;;;1.65;;
21675;SDS011;10999;51.332;9.458;2023-04-12T04:00:00;5.70;;;1.42;;
21675;SDS011;10999;51.332;9.458;2023-04-12T04:02:27;4.18;;;1.15;;
21675;SDS011;10999;51.332;9.458;2023-04-12T04:04:55;5.15;;;1.20;;
21675;SDS011;10999;51.332;9.458;2023-04-12T04:07:22;5.50;;;1.20;;
21675;SDS011;10999;51.332;9.458;2023-04-12T04:09:49;7.28;;;1.70;;
21675;SDS011;10999;51.332;9.458;2023-04-12T04:12:15;6.88;;;1.50;;
21675;SDS011;10999;51.332;9.458;2023-04-12T04:14:42;7.60;;;1.40;;
21675;SDS011;10999;51.332;9.458;2023-04-12T04:17:09;3.85;;;1.52;;
21675;SDS011;10999;51.332;9.458;2023-04-12T04:19:36;5.80;;;1.90;;
21675;SDS011;10999;51.332;9.458;2023-04-12T04:22:03;6.85;;;1.63;;
21675;SDS011;10999;51.332;9.458;2023-04-12T04:24:30;7.72;;;2.00;;
21675;SDS011;10999;51.332;9.458;2023-04-12T04:26:56;6.10;;;1.70;;
21675;SDS011;10999;51.332;9.458;2023-04-12T04:29:24;6.38;;;1.67;;
21675;SDS011;10999;51.332;9.458;2023-04-12T04:31:51;6.72;;;1.50;;
21675;SDS011;10999;51.332;9.458;2023-04-12T04:34:19;5.93;;;1.65;;
21675;SDS011;10999;51.332;9.458;2023-04-12T04:36:47;4.38;;;1.60;;
21675;SDS011;10999;51.332;9.458;2023-04-12T04:39:14;3.85;;;1.58;;
21675;SDS011;10999;51.332;9.458;2023-04-12T04:41:40;5.65;;;1.30;;
21675;SDS011;10999;51.332;9.458;2023-04-12T04:44:07;6.53;;;1.27;;
21675;SDS011;10999;51.332;9.458;2023-04-12T04:46:35;8.35;;;1.45;;
21675;SDS011;10999;51.332;9.458;2023-04-12T04:49:03;6.40;;;1.30;;
21675;SDS011;10999;51.332;9.458;2023-04-12T04:51:30;6.25;;;2.20;;
21675;SDS011;10999;51.332;9.458;2023-04-12T04:53:57;7.50;;;1.73;;
21675;SDS011;10999;51.332;9.458;2023-04-12T04:56:24;6.55;;;1.40;;
21675;SDS011;10999;51.332;9.458;2023-04-12T04:58:51;5.88;;;1.40;;
21675;SDS011;10999;51.332;9.458;2023-04-12T05:01:21;6.55;;;1.50;;
21675;SDS011;10999;51.332;9.458;2023-04-12T05:03:53;5.05;;;1.60;;
21675;SDS011;10999;51.332;9.458;2023-04-12T05:06:21;6.35;;;1.60;;
21675;SDS011;10999;51.332;9.458;2023-04-12T05:08:48;6.75;;;2.15;;
21675;SDS011;10999;51.332;9.458;2023-04-12T05:11:15;3.67;;;1.38;;
21675;SDS011;10999;51.332;9.458;2023-04-12T05:13:42;4.70;;;1.42;;
21675;SDS011;10999;51.332;9.458;2023-04-12T05:16:08;6.43;;;1.20;;
21675;SDS011;10999;51.332;9.458;2023-04-12T05:18:36;7.60;;;2.00;;
21675;SDS011;10999;51.332;9.458;2023-04-12T05:21:03;7.25;;;1.65;;
21675;SDS011;10999;51.332;9.458;2023-04-12T05:23:40;6.18;;;1.67;;
21675;SDS011;10999;51.332;9.458;2023-04-12T05:26:08;6.40;;;1.58;;
21675;SDS011;10999;51.332;9.458;2023-04-12T05:28:34;4.78;;;1.00;;
21675;SDS011;10999;51.332;9.458;2023-04-12T05:31:01;6.50;;;1.42;;
21675;SDS011;10999;51.332;9.458;2023-04-12T05:33:29;6.32;;;1.77;;
21675;SDS011;10999;51.332;9.458;2023-04-12T05:35:58;7.28;;;1.80;;
21675;SDS011;10999;51.332;9.458;2023-04-12T05:38:25;3.53;;;1.45;;
21675;SDS011;10999;51.332;9.458;2023-04-12T05:40:52;8.15;;;1.83;;
21675;SDS011;10999;51.332;9.458;2023-04-12T05:43:19;9.35;;;1.70;;
21675;SDS011;10999;51.332;9.458;2023-04-12T05:45:45;5.78;;;2.17;;
21675;SDS011;10999;51.332;9.458;2023-04-12T05:48:12;5.78;;;1.30;;
21675;SDS011;10999;51.332;9.458;2023-04-12T05:50:39;4.85;;;1.45;;
21675;SDS011;10999;51.332;9.458;2023-04-12T05:53:06;7.00;;;1.45;;
21675;SDS011;10999;51.332;9.458;2023-04-12T05:55:33;5.55;;;1.20;;
21675;SDS011;10999;51.332;9.458;2023-04-12T05:58:03;2.28;;;0.90;;
21675;SDS011;10999;51.332;9.458;2023-04-12T06:00:29;6.97;;;1.27;;
21675;SDS011;10999;51.332;9.458;2023-04-12T06:02:57;4.57;;;1.13;;
21675;SDS011;10999;51.332;9.458;2023-04-12T06:05:24;12.13;;;1.73;;
21675;SDS011;10999;51.332;9.458;2023-04-12T06:07:50;7.13;;;1.52;;
21675;SDS011;10999;51.332;9.458;2023-04-12T06:10:17;5.53;;;1.40;;
21675;SDS011;10999;51.332;9.458;2023-04-12T06:12:44;5.28;;;1.30;;
21675;SDS011;10999;51.332;9.458;2023-04-12T06:15:11;5.63;;;1.33;;
21675;SDS011;10999;51.332;9.458;2023-04-12T06:17:37;6.32;;;1.08;;
21675;SDS011;10999;51.332;9.458;2023-04-12T06:20:04;5.13;;;1.30;;
21675;SDS011;10999;51.332;9.458;2023-04-12T06:22:35;2.97;;;1.15;;
21675;SDS011;10999;51.332;9.458;2023-04-12T06:25:02;6.15;;;1.40;;
21675;SDS011;10999;51.332;9.458;2023-04-12T06:27:29;5.38;;;1.50;;
21675;SDS011;10999;51.332;9.458;2023-04-12T06:30:06;4.85;;;1.52;;
21675;SDS011;10999;51.332;9.458;2023-04-12T06:32:33;5.28;;;1.10;;
21675;SDS011;10999;51.332;9.458;2023-04-12T06:35:00;7.03;;;1.05;;
21675;SDS011;10999;51.332;9.458;2023-04-12T06:37:27;3.83;;;1.55;;
21675;SDS011;10999;51.332;9.458;2023-04-12T06:39:54;6.07;;;1.25;;
21675;SDS011;10999;51.332;9.458;2023-04-12T06:42:21;3.03;;;1.15;;
21675;SDS011;10999;51.332;9.458;2023-04-12T06:44:47;6.75;;;1.63;;
21675;SDS011;10999;51.332;9.458;2023-04-12T06:47:14;6.07;;;0.98;;
21675;SDS011;10999;51.332;9.458;2023-04-12T06:49:41;7.38;;;1.40;;
21675;SDS011;10999;51.332;9.458;2023-04-12T06:52:08;8.27;;;1.10;;
21675;SDS011;10999;51.332;9.458;2023-04-12T06:54:35;4.53;;;1.10;;
21675;SDS011;10999;51.332;9.458;2023-04-12T06:57:03;5.30;;;1.20;;
21675;SDS011;10999;51.332;9.458;2023-04-12T06:59:34;1.67;;;0.73;;
21675;SDS011;10999;51.332;9.458;2023-04-12T07:02:01;4.53;;;1.45;;
21675;SDS011;10999;51.332;9.458;2023-04-12T07:04:28;3.90;;;1.00;;
21675;SDS011;10999;51.332;9.458;2023-04-12T07:06:54;3.28;;;1.05;;
21675;SDS011;10999;51.332;9.458;2023-04-12T07:09:21;5.72;;;1.40;;
21675;SDS011;10999;51.332;9.458;2023-04-12T07:11:48;7.18;;;1.42;;
21675;SDS011;10999;51.332;9.458;2023-04-12T07:14:14;7.80;;;1.20;;
21675;SDS011;10999;51.332;9.458;2023-04-12T07:16:42;5.35;;;1.23;;
21675;SDS011;10999;51.332;9.458;2023-04-12T07:19:09;4.43;;;1.25;;
21675;SDS011;10999;51.332;9.458;2023-04-12T07:21:35;6.10;;;1.27;;
21675;SDS011;10999;51.332;9.458;2023-04-12T07:24:02;6.22;;;1.02;;
21675;SDS011;10999;51.332;9.458;2023-04-12T07:26:29;3.10;;;0.88;;
21675;SDS011;10999;51.332;9.458;2023-04-12T07:28:56;3.88;;;0.90;;
21675;SDS011;10999;51.332;9.458;2023-04-12T07:31:23;3.83;;;1.77;;
21675;SDS011;10999;51.332;9.458;2023-04-12T07:33:50;5.93;;;1.30;;
21675;SDS011;10999;51.332;9.458;2023-04-12T07:36:17;4.97;;;1.20;;
21675;SDS011;10999;51.332;9.458;2023-04-12T07:38:46;5.45;;;1.33;;
21675;SDS011;10999;51.332;9.458;2023-04-12T07:41:13;4.57;;;1.33;;
21675;SDS011;10999;51.332;9.458;2023-04-12T07:43:40;3.08;;;0.98;;
21675;SDS011;10999;51.332;9.458;2023-04-12T07:46:07;7.88;;;1.50;;
21675;SDS011;10999;51.332;9.458;2023-04-12T07:48:34;5.25;;;1.20;;
21675;SDS011;10999;51.332;9.458;2023-04-12T07:51:01;5.03;;;1.08;;
21675;SDS011;10999;51.332;9.458;2023-04-12T07:53:28;9.02;;;1.33;;
21675;SDS011;10999;51.332;9.458;2023-04-12T07:55:55;4.10;;;1.17;;
21675;SDS011;10999;51.332;9.458;2023-04-12T07:58:22;3.15;;;0.98;;
21675;SDS011;10999;51.332;9.458;2023-04-12T08:00:50;7.75;;;1.40;;
21675;SDS011;10999;51.332;9.458;2023-04-12T08:03:18;7.43;;;2.13;;
21675;SDS011;10999;51.332;9.458;2023-04-12T08:05:45;7.07;;;1.05;;
21675;SDS011;10999;51.332;9.458;2023-04-12T08:08:18;4.93;;;1.08;;
21675;SDS011;10999;51.332;9.458;2023-04-12T08:10:50;2.40;;;0.95;;
21675;SDS011;10999;51.332;9.458;2023-04-12T08:13:17;5.20;;;1.27;;
21675;SDS011;10999;51.332;9.458;2023-04-12T08:15:44;5.65;;;1.35;;
21675;SDS011;10999;51.332;9.458;2023-04-12T08:18:14;4.43;;;1.20;;
21675;SDS011;10999;51.332;9.458;2023-04-12T08:20:40;3.72;;;1.20;;
21675;SDS011;10999;51.332;9.458;2023-04-12T08:23:11;5.70;;;1.48;;
21675;SDS011;10999;51.332;9.458;2023-04-12T08:25:39;4.72;;;1.20;;
21675;SDS011;10999;51.332;9.458;2023-04-12T08:28:07;2.50;;;0.82;;
21675;SDS011;10999;51.332;9.458;2023-04-12T08:30:33;4.28;;;1.38;;
21675;SDS011;10999;51.332;9.458;2023-04-12T08:33:01;5.97;;;1.60;;
21675;SDS011;10999;51.332;9.458;2023-04-12T08:35:27;4.82;;;1.10;;
21675;SDS011;10999;51.332;9.458;2023-04-12T08:37:54;4.22;;;1.35;;
21675;SDS011;10999;51.332;9.458;2023-04-12T08:40:21;5.50;;;1.40;;
21675;SDS011;10999;51.332;9.458;2023-04-12T08:42:48;2.35;;;1.17;;
21675;SDS011;10999;51.332;9.458;2023-04-12T08:45:18;4.88;;;1.23;;
21675;SDS011;10999;51.332;9.458;2023-04-12T08:47:48;3.35;;;1.25;;
21675;SDS011;10999;51.332;9.458;2023-04-12T08:50:15;7.60;;;1.30;;
21675;SDS011;10999;51.332;9.458;2023-04-12T08:52:42;3.22;;;1.10;;
21675;SDS011;10999;51.332;9.458;2023-04-12T08:55:09;2.58;;;0.88;;
21675;SDS011;10999;51.332;9.458;2023-04-12T08:57:38;2.75;;;0.80;;
21675;SDS011;10999;51.332;9.458;2023-04-12T09:00:06;3.35;;;0.90;;
21675;SDS011;10999;51.332;9.458;2023-04-12T09:02:34;8.98;;;1.63;;
21675;SDS011;10999;51.332;9.458;2023-04-12T09:05:03;3.25;;;1.38;;
21675;SDS011;10999;51.332;9.458;2023-04-12T09:07:32;2.58;;;0.90;;
21675;SDS011;10999;51.332;9.458;2023-04-12T09:09:59;3.33;;;1.13;;
21675;SDS011;10999;51.332;9.458;2023-04-12T09:12:26;3.88;;;0.90;;
21675;SDS011;10999;51.332;9.458;2023-04-12T09:15:09;3.78;;;1.30;;
21675;SDS011;10999;51.332;9.458;2023-04-12T09:17:39;2.10;;;0.73;;
21675;SDS011;10999;51.332;9.458;2023-04-12T09:22:43;3.33;;;0.82;;
21675;SDS011;10999;51.332;9.458;2023-04-12T09:25:12;3.25;;;0.80;;
21675;SDS011;10999;51.332;9.458;2023-04-12T09:30:16;2.17;;;0.70;;
21675;SDS011;10999;51.332;9.458;2023-04-12T09:32:44;4.00;;;0.90;;
21675;SDS011;10999;51.332;9.458;2023-04-12T09:35:14;3.78;;;0.90;;
21675;SDS011;10999;51.332;9.458;2023-04-12T09:37:41;4.63;;;1.23;;
21675;SDS011;10999;51.332;9.458;2023-04-12T09:40:08;2.63;;;0.95;;
21675;SDS011;10999;51.332;9.458;2023-04-12T09:42:50;2.28;;;0.82;;
21675;SDS011;10999;51.332;9.458;2023-04-12T09:45:19;3.55;;;1.08;;
21675;SDS011;10999;51.332;9.458;2023-04-12T09:47:51;2.20;;;0.85;;
21675;SDS011;10999;51.332;9.458;2023-04-12T09:50:20;2.85;;;1.00;;
21675;SDS011;10999;51.332;9.458;2023-04-12T09:52:51;2.72;;;0.75;;
21675;SDS011;10999;51.332;9.458;2023-04-12T09:55:20;1.90;;;0.75;;
21675;SDS011;10999;51.332;9.458;2023-04-12T09:57:48;2.95;;;0.85;;
21675;SDS011;10999;51.332;9.458;2023-04-12T10:00:17;2.97;;;0.80;;
21675;SDS011;10999;51.332;9.458;2023-04-12T10:02:46;3.58;;;1.00;;
21675;SDS011;10999;51.332;9.458;2023-04-12T10:05:17;2.65;;;0.90;;
21675;SDS011;10999;51.332;9.458;2023-04-12T10:07:47;2.60;;;0.65;;
21675;SDS011;10999;51.332;9.458;2023-04-12T10:10:15;4.07;;;0.90;;
21675;SDS011;10999;51.332;9.458;2023-04-12T10:12:44;2.58;;;0.80;;
21675;SDS011;10999;51.332;9.458;2023-04-12T10:15:12;4.03;;;0.95;;
21675;SDS011;10999;51.332;9.458;2023-04-12T10:17:47;3.17;;;0.90;;
21675;SDS011;10999;51.332;9.458;2023-04-12T10:20:15;3.53;;;0.80;;
21675;SDS011;10999;51.332;9.458;2023-04-12T10:22:44;2.55;;;0.60;;
21675;SDS011;10999;51.332;9.458;2023-04-12T10:25:12;1.10;;;0.55;;
21675;SDS011;10999;51.332;9.458;2023-04-12T10:27:41;3.47;;;0.70;;
21675;SDS011;10999;51.332;9.458;2023-04-12T10:30:17;2.60;;;0.80;;
21675;SDS011;10999;51.332;9.458;2023-04-12T10:32:44;1.83;;;0.57;;
21675;SDS011;10999;51.332;9.458;2023-04-12T10:35:11;0.93;;;0.50;;
21675;SDS011;10999;51.332;9.458;2023-04-12T10:37:56;2.78;;;0.68;;
21675;SDS011;10999;51.332;9.458;2023-04-12T10:40:27;2.92;;;0.75;;
21675;SDS011;10999;51.332;9.458;2023-04-12T10:45:49;4.10;;;0.80;;
21675;SDS011;10999;51.332;9.458;2023-04-12T10:53:50;1.67;;;0.43;;
21675;SDS011;10999;51.332;9.458;2023-04-12T10:58:58;2.85;;;1.27;;
21675;SDS011;10999;51.332;9.458;2023-04-12T11:01:27;2.97;;;0.85;;
21675;SDS011;10999;51.332;9.458;2023-04-12T11:09:43;2.50;;;0.68;;
21675;SDS011;10999;51.332;9.458;2023-04-12T11:12:14;1.05;;;0.52;;
21675;SDS011;10999;51.332;9.458;2023-04-12T11:19:42;1.02;;;0.50;;
21675;SDS011;10999;51.332;9.458;2023-04-12T11:22:14;1.17;;;0.60;;
21675;SDS011;10999;51.332;9.458;2023-04-12T11:24:43;1.40;;;0.60;;
21675;SDS011;10999;51.332;9.458;2023-04-12T11:27:11;2.28;;;0.68;;
21675;SDS011;10999;51.332;9.458;2023-04-12T11:29:39;1.67;;;0.80;;
21675;SDS011;10999;51.332;9.458;2023-04-12T11:32:08;1.95;;;0.70;;
21675;SDS011;10999;51.332;9.458;2023-04-12T11:34:42;2.20;;;0.60;;
21675;SDS011;10999;51.332;9.458;2023-04-12T11:37:10;1.02;;;0.57;;
21675;SDS011;10999;51.332;9.458;2023-04-12T11:39:41;3.40;;;0.60;;
21675;SDS011;10999;51.332;9.458;2023-04-12T11:42:12;1.35;;;0.50;;
21675;SDS011;10999;51.332;9.458;2023-04-12T11:44:44;1.92;;;0.80;;
21675;SDS011;10999;51.332;9.458;2023-04-12T11:47:21;2.03;;;0.70;;
21675;SDS011;10999;51.332;9.458;2023-04-12T11:49:52;0.55;;;0.45;;
21675;SDS011;10999;51.332;9.458;2023-04-12T11:52:27;1.08;;;0.50;;
21675;SDS011;10999;51.332;9.458;2023-04-12T11:57:24;2.92;;;0.77;;
21675;SDS011;10999;51.332;9.458;2023-04-12T11:59:51;2.47;;;0.60;;
21675;SDS011;10999;51.332;9.458;2023-04-12T12:02:18;1.60;;;0.60;;
21675;SDS011;10999;51.332;9.458;2023-04-12T12:04:49;3.65;;;0.80;;
21675;SDS011;10999;51.332;9.458;2023-04-12T12:07:17;4.30;;;0.70;;
21675;SDS011;10999;51.332;9.458;2023-04-12T12:09:47;2.38;;;0.88;;
21675;SDS011;10999;51.332;9.458;2023-04-12T12:12:15;1.23;;;0.68;;
21675;SDS011;10999;51.332;9.458;2023-04-12T12:14:42;2.75;;;0.52;;
21675;SDS011;10999;51.332;9.458;2023-04-12T12:17:11;1.98;;;0.93;;
21675;SDS011;10999;51.332;9.458;2023-04-12T12:19:41;3.25;;;0.80;;
21675;SDS011;10999;51.332;9.458;2023-04-12T12:22:13;3.83;;;0.90;;
21675;SDS011;10999;51.332;9.458;2023-04-12T12:25:05;2.97;;;0.90;;
21675;SDS011;10999;51.332;9.458;2023-04-12T12:27:38;2.28;;;0.90;;
21675;SDS011;10999;51.332;9.458;2023-04-12T12:30:08;2.05;;;0.80;;
21675;SDS011;10999;51.332;9.458;2023-04-12T12:32:37;1.63;;;0.77;;
21675;SDS011;10999;51.332;9.458;2023-04-12T12:35:08;1.77;;;0.70;;
21675;SDS011;10999;51.332;9.458;2023-04-12T12:37:36;2.55;;;1.00;;
21675;SDS011;10999;51.332;9.458;2023-04-12T12:42:49;2.03;;;1.00;;
21675;SDS011;10999;51.332;9.458;2023-04-12T12:45:24;1.77;;;0.80;;
21675;SDS011;10999;51.332;9.458;2023-04-12T12:47:53;2.67;;;0.90;;
21675;SDS011;10999;51.332;9.458;2023-04-12T12:50:24;4.00;;;1.00;;
21675;SDS011;10999;51.332;9.458;2023-04-12T12:52:52;2.78;;;1.00;;
21675;SDS011;10999;51.332;9.458;2023-04-12T12:55:20;3.22;;;0.98;;
21675;SDS011;10999;51.332;9.458;2023-04-12T12:57:48;3.65;;;1.02;;
21675;SDS011;10999;51.332;9.458;2023-04-12T13:00:32;3.42;;;1.20;;
21675;SDS011;10999;51.332;9.458;2023-04-12T13:02:59;3.03;;;1.05;;
21675;SDS011;10999;51.332;9.458;2023-04-12T13:05:26;2.17;;;1.02;;
21675;SDS011;10999;51.332;9.458;2023-04-12T13:07:53;4.10;;;1.10;;
21675;SDS011;10999;51.332;9.458;2023-04-12T13:10:19;2.60;;;1.10;;
21675;SDS011;10999;51.332;9.458;2023-04-12T13:12:46;2.80;;;1.00;;
21675;SDS011;10999;51.332;9.458;2023-04-12T13:15:13;4.72;;;1.50;;
21675;SDS011;10999;51.332;9.458;2023-04-12T13:17:50;4.40;;;1.20;;
21675;SDS011;10999;51.332;9.458;2023-04-12T13:20:17;2.08;;;1.02;;
21675;SDS011;10999;51.332;9.458;2023-04-12T13:22:44;3.63;;;1.45;;
21675;SDS011;10999;51.332;9.458;2023-04-12T13:25:11;2.28;;;1.05;;
21675;SDS011;10999;51.332;9.458;2023-04-12T13:27:37;2.08;;;0.90;;
21675;SDS011;10999;51.332;9.458;2023-04-12T13:30:04;4.30;;;1.25;;
21675;SDS011;10999;51.332;9.458;2023-04-12T13:32:32;2.90;;;1.20;;
21675;SDS011;10999;51.332;9.458;2023-04-12T13:34:58;2.80;;;1.15;;
21675;SDS011;10999;51.332;9.458;2023-04-12T13:37:25;3.28;;;1.42;;
21675;SDS011;10999;51.332;9.458;2023-04-12T13:39:52;3.80;;;1.10;;
21675;SDS011;10999;51.332;9.458;2023-04-12T13:42:19;3.35;;;1.40;;
21675;SDS011;10999;51.332;9.458;2023-04-12T13:44:47;3.30;;;1.10;;
21675;SDS011;10999;51.332;9.458;2023-04-12T13:47:15;3.95;;;1.30;;
21675;SDS011;10999;51.332;9.458;2023-04-12T13:49:43;2.78;;;1.30;;
21675;SDS011;10999;51.332;9.458;2023-04-12T13:52:09;2.88;;;1.17;;
21675;SDS011;10999;51.332;9.458;2023-04-12T13:54:36;2.65;;;1.30;;
21675;SDS011;10999;51.332;9.458;2023-04-12T13:57:03;2.53;;;1.20;;
21675;SDS011;10999;51.332;9.458;2023-04-12T13:59:31;2.80;;;1.27;;
21675;SDS011;10999;51.332;9.458;2023-04-12T14:01:58;2.83;;;1.17;;
21675;SDS011;10999;51.332;9.458;2023-04-12T14:04:26;3.88;;;1.30;;
21675;SDS011;10999;51.332;9.458;2023-04-12T14:06:53;2.25;;;1.25;;
21675;SDS011;10999;51.332;9.458;2023-04-12T14:09:25;5.18;;;1.38;;
21675;SDS011;10999;51.332;9.458;2023-04-12T14:11:53;3.97;;;1.52;;
21675;SDS011;10999;51.332;9.458;2023-04-12T14:14:21;6.63;;;1.90;;
21675;SDS011;10999;51.332;9.458;2023-04-12T14:16:49;3.30;;;1.60;;
21675;SDS011;10999;51.332;9.458;2023-04-12T14:19:18;4.57;;;1.70;;
21675;SDS011;10999;51.332;9.458;2023-04-12T14:21:46;4.30;;;1.80;;
21675;SDS011;10999;51.332;9.458;2023-04-12T14:24:14;5.35;;;1.98;;
21675;SDS011;10999;51.332;9.458;2023-04-12T14:26:41;6.10;;;2.50;;
21675;SDS011;10999;51.332;9.458;2023-04-12T14:29:08;4.72;;;2.38;;
21675;SDS011;10999;51.332;9.458;2023-04-12T14:31:36;4.60;;;1.92;;
21675;SDS011;10999;51.332;9.458;2023-04-12T14:34:03;5.90;;;2.05;;
21675;SDS011;10999;51.332;9.458;2023-04-12T14:36:30;6.78;;;2.22;;
21675;SDS011;10999;51.332;9.458;2023-04-12T14:38:58;5.32;;;2.00;;
21675;SDS011;10999;51.332;9.458;2023-04-12T14:41:26;6.40;;;2.22;;
21675;SDS011;10999;51.332;9.458;2023-04-12T14:43:54;4.65;;;2.15;;
21675;SDS011;10999;51.332;9.458;2023-04-12T14:46:21;4.82;;;2.10;;
21675;SDS011;10999;51.332;9.458;2023-04-12T14:48:50;4.35;;;1.90;;
21675;SDS011;10999;51.332;9.458;2023-04-12T14:51:17;9.40;;;2.38;;
21675;SDS011;10999;51.332;9.458;2023-04-12T14:53:44;6.38;;;2.28;;
21675;SDS011;10999;51.332;9.458;2023-04-12T14:56:15;4.63;;;2.10;;
21675;SDS011;10999;51.332;9.458;2023-04-12T14:58:52;4.82;;;2.08;;
21675;SDS011;10999;51.332;9.458;2023-04-12T15:01:22;5.70;;;2.50;;
21675;SDS011;10999;51.332;9.458;2023-04-12T15:03:50;5.72;;;2.30;;
21675;SDS011;10999;51.332;9.458;2023-04-12T15:06:18;4.25;;;1.90;;
21675;SDS011;10999;51.332;9.458;2023-04-12T15:08:48;5.57;;;2.50;;
21675;SDS011;10999;51.332;9.458;2023-04-12T15:11:20;5.15;;;2.25;;
21675;SDS011;10999;51.332;9.458;2023-04-12T15:13:52;4.97;;;2.25;;
21675;SDS011;10999;51.332;9.458;2023-04-12T15:16:19;4.55;;;1.92;;
21675;SDS011;10999;51.332;9.458;2023-04-12T15:18:46;4.55;;;2.13;;
21675;SDS011;10999;51.332;9.458;2023-04-12T15:21:12;5.90;;;2.53;;
21675;SDS011;10999;51.332;9.458;2023-04-12T15:23:39;5.60;;;2.47;;
21675;SDS011;10999;51.332;9.458;2023-04-12T15:26:06;4.82;;;2.30;;
21675;SDS011;10999;51.332;9.458;2023-04-12T15:28:37;7.25;;;3.60;;
21675;SDS011;10999;51.332;9.458;2023-04-12T15:31:03;5.03;;;2.08;;
21675;SDS011;10999;51.332;9.458;2023-04-12T15:33:31;6.50;;;2.67;;
21675;SDS011;10999;51.332;9.458;2023-04-12T15:36:00;5.13;;;2.53;;
21675;SDS011;10999;51.332;9.458;2023-04-12T15:38:27;5.78;;;2.50;;